Terminal Aerodrome Forecast
Issued by NWS

Home | Current Version | Previous Version | Text Only | Print | Product List | Glossary Off
Versions: 1 2 3 4 5 6 7 8 9 10 11 12 13 14 15 16 17 18 19 20 21 22

000
FTUS43 KBIS 210500
TAFDIK
TAF
KDIK 210525Z 2106/2206 17009KT P6SM SKC
     FM211200 05010KT P6SM SCT100
      TEMPO 2117/2121 4SM TSRA BKN060CB
     FM212100 02009KT P6SM BKN060=

USA.gov is the U.S. government's official web portal to all federal, state and local government web resources and services.